Pascagoula, Mississippi
Current Conditions -  °F | °C
As of 4:02 AM on Wednesday 22 Oct 2014 (Local Time) from KPQL Reporting Station
Clear Clear  
Wind Chill: 50°   Ceiling: Unl
Heat Index: 50°   Visibility: 5mi
Dew Point: 50°   Wind: 0mph
Humidity: 100%   Direction: NA
Pressure: 30.02"   Gusts: NA
Location:  30.37°N, 88.56°W
Report Text: KPQL 220902Z AUTO 00000KT 5SM CLR 10/10 A3002 RMK AO2 T01000100 TSNO
Loading
Personal Weather Stations






























Interactive Weather Map
Tropical Storm Tracking
New forecast layout! Learn more

10-Day Weather Forecast

Advertisements
Track Severe Weather on mobile